Startpagina
METAR-TAF:

METAR-TAF

Vliegvelden :

Honiara, Guadalcanal, Salomonseilanden

Honiara International Airport

breedte: 09-25S, lengte: 160-03E, hoogte: 8 m

Actueel weer

Dit bericht is 1 uur en het 0 minuten geleden gemaakt, om 01:00 UTC
Wind 13 kt uit het oosten
Temperatuur 32°C
Vochtigheid 71%
Druk 1011 hPa
Zicht 10 km of meer
Verspreide wolken op 2000 ft
Weinig wolken op 2100 ft, Cumulonimbus.
Verspreide wolken op 3200 ft

METAR: AGGH 230100Z 09013KT 9999 SCT020 FEW021CB SCT032 32/26 Q1011

Tijdstip: 13:00 (02:00 UTC)

Verwachting

Dit bericht is 2 uur en het 50 minuten geleden gemaakt, om 23:10 UTC
Verwachting geldig van 23 om 00 UTC tot 23 om 24 UTC
Wind 12 kt uit het oostnoordoosten
Zicht 10 km of meer
Verspreide wolken op 1900 ft
Kans 40%
tussen IN en het TE UTC
Zicht: 1011 m
Gebroken wolken op 1700 ft
Weinig wolken op 1800 ft, Cumulonimbus.

TAF: AGGH 222310Z 2300/2324 07012KT 9999 SCT019 PROB40 INTER 2302/2307 5000 TSSH BKN017 FEW018CB T 30 31 30 28 Q 1012 1010 1009 1011

Waarnemingen en weersverwachtingen van meer dan 4000 vliegvelden (METAR en TAF).

De beschikbare stations zijn de gele en rode punten op de kaart.

Ga met uw muis naar het station om de naam te zien.

Klik dan om waarnemingen en weersverwachtingen te zien.

kaart wijzigen: klik op de groene knoppen met een zwart kruis om in te zoomen, op de groene knop met een streepje om uit te zoomen of op de groene pijlen voor aangrenzende kaarten.


METAR-TAF: